ΕΜΥ, Εθνική Μετεωρολογική Υπηρεσία - Δελτία Καιρού, Προγνώσεις

ΑΕΡΟΝΑΥΤΙΛΙΑ

GREEK AIRPORTS CODES

TAF LGAV 011100Z 0112/0212 22012KT 9999 FEW025 SCT070 TEMPO 0112/0118 22015G25KT BECMG 0120/0122 VRB05KT=

EUROPEAN AIRPORTS CODES

UUWW 011530Z 10002MPS 5000 BR NSC M10/M12 Q1041 R24/290045 NOSIG=